sensor_id;sensor_type;location;lat;lon;timestamp;temperature;humidity
4840;DHT22;2434;48.486;7.964;2023-06-14T00:00:36;18.30;26.60
4840;DHT22;2434;48.486;7.964;2023-06-14T00:03:08;18.20;27.50
4840;DHT22;2434;48.486;7.964;2023-06-14T00:05:37;18.20;26.50
4840;DHT22;2434;48.486;7.964;2023-06-14T00:08:10;18.10;27.40
4840;DHT22;2434;48.486;7.964;2023-06-14T00:10:38;18.00;27.40
4840;DHT22;2434;48.486;7.964;2023-06-14T00:13:08;18.00;27.50
4840;DHT22;2434;48.486;7.964;2023-06-14T00:15:38;17.90;27.00
4840;DHT22;2434;48.486;7.964;2023-06-14T00:18:06;17.90;27.00
4840;DHT22;2434;48.486;7.964;2023-06-14T00:20:36;17.90;27.60
4840;DHT22;2434;48.486;7.964;2023-06-14T00:23:04;17.90;27.80
4840;DHT22;2434;48.486;7.964;2023-06-14T00:25:33;17.90;27.10
4840;DHT22;2434;48.486;7.964;2023-06-14T00:28:02;17.80;26.40
4840;DHT22;2434;48.486;7.964;2023-06-14T00:30:30;17.80;26.30
4840;DHT22;2434;48.486;7.964;2023-06-14T00:33:00;17.70;26.10
4840;DHT22;2434;48.486;7.964;2023-06-14T00:35:29;17.60;26.30
4840;DHT22;2434;48.486;7.964;2023-06-14T00:37:57;17.60;26.60
4840;DHT22;2434;48.486;7.964;2023-06-14T00:40:26;17.60;26.00
4840;DHT22;2434;48.486;7.964;2023-06-14T00:42:55;17.60;25.20
4840;DHT22;2434;48.486;7.964;2023-06-14T00:45:23;17.70;26.20
4840;DHT22;2434;48.486;7.964;2023-06-14T00:47:52;17.70;27.00
4840;DHT22;2434;48.486;7.964;2023-06-14T00:50:24;17.60;27.10
4840;DHT22;2434;48.486;7.964;2023-06-14T00:52:53;17.70;26.40
4840;DHT22;2434;48.486;7.964;2023-06-14T00:55:21;17.70;27.40
4840;DHT22;2434;48.486;7.964;2023-06-14T00:57:50;17.70;27.90
4840;DHT22;2434;48.486;7.964;2023-06-14T01:00:18;17.70;28.40
4840;DHT22;2434;48.486;7.964;2023-06-14T01:02:47;17.60;28.40
4840;DHT22;2434;48.486;7.964;2023-06-14T01:05:16;17.60;29.30
4840;DHT22;2434;48.486;7.964;2023-06-14T01:08:07;17.60;28.70
4840;DHT22;2434;48.486;7.964;2023-06-14T01:10:44;17.50;29.00
4840;DHT22;2434;48.486;7.964;2023-06-14T01:13:20;17.50;27.80
4840;DHT22;2434;48.486;7.964;2023-06-14T01:15:50;17.40;29.10
4840;DHT22;2434;48.486;7.964;2023-06-14T01:18:19;17.40;29.70
4840;DHT22;2434;48.486;7.964;2023-06-14T01:20:47;17.40;30.50
4840;DHT22;2434;48.486;7.964;2023-06-14T01:23:20;17.30;29.40
4840;DHT22;2434;48.486;7.964;2023-06-14T01:25:49;17.30;30.80
4840;DHT22;2434;48.486;7.964;2023-06-14T01:28:21;17.30;30.70
4840;DHT22;2434;48.486;7.964;2023-06-14T01:30:52;17.20;31.00
4840;DHT22;2434;48.486;7.964;2023-06-14T01:33:24;17.10;31.10
4840;DHT22;2434;48.486;7.964;2023-06-14T01:35:58;17.10;31.10
4840;DHT22;2434;48.486;7.964;2023-06-14T01:38:31;17.00;30.80
4840;DHT22;2434;48.486;7.964;2023-06-14T01:41:00;16.90;31.60
4840;DHT22;2434;48.486;7.964;2023-06-14T01:43:30;16.80;32.00
4840;DHT22;2434;48.486;7.964;2023-06-14T01:45:59;16.70;31.70
4840;DHT22;2434;48.486;7.964;2023-06-14T01:48:28;16.60;31.10
4840;DHT22;2434;48.486;7.964;2023-06-14T01:50:56;16.60;31.50
4840;DHT22;2434;48.486;7.964;2023-06-14T01:53:25;16.50;31.80
4840;DHT22;2434;48.486;7.964;2023-06-14T01:55:55;16.40;30.80
4840;DHT22;2434;48.486;7.964;2023-06-14T01:58:23;16.30;31.40
4840;DHT22;2434;48.486;7.964;2023-06-14T02:00:52;16.30;31.30
4840;DHT22;2434;48.486;7.964;2023-06-14T02:03:23;16.30;31.50
4840;DHT22;2434;48.486;7.964;2023-06-14T02:05:52;16.20;31.40
4840;DHT22;2434;48.486;7.964;2023-06-14T02:08:21;16.20;31.90
4840;DHT22;2434;48.486;7.964;2023-06-14T02:10:50;16.10;32.70
4840;DHT22;2434;48.486;7.964;2023-06-14T02:13:22;16.10;31.90
4840;DHT22;2434;48.486;7.964;2023-06-14T02:15:50;16.00;32.10
4840;DHT22;2434;48.486;7.964;2023-06-14T02:18:21;16.00;32.60
4840;DHT22;2434;48.486;7.964;2023-06-14T02:20:50;16.00;33.30
4840;DHT22;2434;48.486;7.964;2023-06-14T02:23:18;16.00;32.80
4840;DHT22;2434;48.486;7.964;2023-06-14T02:25:46;16.00;32.80
4840;DHT22;2434;48.486;7.964;2023-06-14T02:28:15;16.00;32.70
4840;DHT22;2434;48.486;7.964;2023-06-14T02:30:44;16.00;32.80
4840;DHT22;2434;48.486;7.964;2023-06-14T02:33:13;15.90;33.40
4840;DHT22;2434;48.486;7.964;2023-06-14T02:35:41;15.90;33.00
4840;DHT22;2434;48.486;7.964;2023-06-14T02:38:09;15.90;33.30
4840;DHT22;2434;48.486;7.964;2023-06-14T02:40:38;15.90;32.60
4840;DHT22;2434;48.486;7.964;2023-06-14T02:43:09;15.80;33.50
4840;DHT22;2434;48.486;7.964;2023-06-14T02:45:38;15.80;33.40
4840;DHT22;2434;48.486;7.964;2023-06-14T02:48:09;15.80;34.80
4840;DHT22;2434;48.486;7.964;2023-06-14T02:50:40;15.70;35.00
4840;DHT22;2434;48.486;7.964;2023-06-14T02:53:08;15.70;35.70
4840;DHT22;2434;48.486;7.964;2023-06-14T02:55:37;15.70;35.40
4840;DHT22;2434;48.486;7.964;2023-06-14T02:58:07;15.70;35.10
4840;DHT22;2434;48.486;7.964;2023-06-14T03:00:35;15.70;35.50
4840;DHT22;2434;48.486;7.964;2023-06-14T03:03:05;15.60;35.50
4840;DHT22;2434;48.486;7.964;2023-06-14T03:05:48;15.60;36.00
4840;DHT22;2434;48.486;7.964;2023-06-14T03:08:22;15.50;36.20
4840;DHT22;2434;48.486;7.964;2023-06-14T03:10:55;15.40;36.10
4840;DHT22;2434;48.486;7.964;2023-06-14T03:13:25;15.30;36.00
4840;DHT22;2434;48.486;7.964;2023-06-14T03:15:54;15.30;36.60
4840;DHT22;2434;48.486;7.964;2023-06-14T03:18:23;15.30;35.90
4840;DHT22;2434;48.486;7.964;2023-06-14T03:20:57;15.30;36.10
4840;DHT22;2434;48.486;7.964;2023-06-14T03:23:27;15.30;36.50
4840;DHT22;2434;48.486;7.964;2023-06-14T03:25:56;15.20;36.40
4840;DHT22;2434;48.486;7.964;2023-06-14T03:28:25;15.10;36.50
4840;DHT22;2434;48.486;7.964;2023-06-14T03:30:55;15.00;37.10
4840;DHT22;2434;48.486;7.964;2023-06-14T03:33:25;15.00;37.10
4840;DHT22;2434;48.486;7.964;2023-06-14T03:35:56;14.90;37.10
4840;DHT22;2434;48.486;7.964;2023-06-14T03:38:26;14.90;37.40
4840;DHT22;2434;48.486;7.964;2023-06-14T03:40:54;14.80;37.20
4840;DHT22;2434;48.486;7.964;2023-06-14T03:43:23;14.80;37.50
4840;DHT22;2434;48.486;7.964;2023-06-14T03:45:53;14.70;37.40
4840;DHT22;2434;48.486;7.964;2023-06-14T03:48:23;14.70;38.20
4840;DHT22;2434;48.486;7.964;2023-06-14T03:50:52;14.70;38.30
4840;DHT22;2434;48.486;7.964;2023-06-14T03:53:28;14.70;38.70
4840;DHT22;2434;48.486;7.964;2023-06-14T03:55:57;14.70;38.70
4840;DHT22;2434;48.486;7.964;2023-06-14T03:58:35;14.70;39.10
4840;DHT22;2434;48.486;7.964;2023-06-14T04:01:03;14.60;38.80
4840;DHT22;2434;48.486;7.964;2023-06-14T04:03:33;14.60;39.90
4840;DHT22;2434;48.486;7.964;2023-06-14T04:06:04;14.60;39.70
4840;DHT22;2434;48.486;7.964;2023-06-14T04:08:34;14.70;40.40
4840;DHT22;2434;48.486;7.964;2023-06-14T04:11:02;14.60;39.10
4840;DHT22;2434;48.486;7.964;2023-06-14T04:13:30;14.60;39.30
4840;DHT22;2434;48.486;7.964;2023-06-14T04:16:02;14.60;39.80
4840;DHT22;2434;48.486;7.964;2023-06-14T04:18:42;14.60;40.30
4840;DHT22;2434;48.486;7.964;2023-06-14T04:21:11;14.60;41.30
4840;DHT22;2434;48.486;7.964;2023-06-14T04:23:41;14.60;40.70
4840;DHT22;2434;48.486;7.964;2023-06-14T04:26:12;14.70;41.10
4840;DHT22;2434;48.486;7.964;2023-06-14T04:28:42;14.70;41.00
4840;DHT22;2434;48.486;7.964;2023-06-14T04:31:13;14.70;41.30
4840;DHT22;2434;48.486;7.964;2023-06-14T04:33:43;14.70;41.70
4840;DHT22;2434;48.486;7.964;2023-06-14T04:36:20;14.70;40.70
4840;DHT22;2434;48.486;7.964;2023-06-14T04:38:51;14.70;42.40
4840;DHT22;2434;48.486;7.964;2023-06-14T04:41:23;14.70;42.20
4840;DHT22;2434;48.486;7.964;2023-06-14T04:43:59;14.70;42.40
4840;DHT22;2434;48.486;7.964;2023-06-14T04:46:32;14.70;42.40
4840;DHT22;2434;48.486;7.964;2023-06-14T04:49:22;14.70;41.50
4840;DHT22;2434;48.486;7.964;2023-06-14T04:51:54;14.80;40.60
4840;DHT22;2434;48.486;7.964;2023-06-14T04:54:28;14.80;40.80
4840;DHT22;2434;48.486;7.964;2023-06-14T04:57:00;14.80;40.70
4840;DHT22;2434;48.486;7.964;2023-06-14T04:59:30;14.90;41.00
4840;DHT22;2434;48.486;7.964;2023-06-14T05:02:00;14.90;41.30
4840;DHT22;2434;48.486;7.964;2023-06-14T05:04:28;14.90;42.20
4840;DHT22;2434;48.486;7.964;2023-06-14T05:06:58;14.90;41.30
4840;DHT22;2434;48.486;7.964;2023-06-14T05:09:27;15.00;40.70
4840;DHT22;2434;48.486;7.964;2023-06-14T05:11:56;15.00;41.00
4840;DHT22;2434;48.486;7.964;2023-06-14T05:14:25;15.00;41.00
4840;DHT22;2434;48.486;7.964;2023-06-14T05:16:55;15.10;41.00
4840;DHT22;2434;48.486;7.964;2023-06-14T05:19:24;15.10;40.80
4840;DHT22;2434;48.486;7.964;2023-06-14T05:21:52;15.20;41.70
4840;DHT22;2434;48.486;7.964;2023-06-14T05:24:20;15.20;41.80
4840;DHT22;2434;48.486;7.964;2023-06-14T05:26:50;15.20;41.40
4840;DHT22;2434;48.486;7.964;2023-06-14T05:29:18;15.30;40.90
4840;DHT22;2434;48.486;7.964;2023-06-14T05:31:47;15.40;40.70
4840;DHT22;2434;48.486;7.964;2023-06-14T05:34:15;15.40;41.00
4840;DHT22;2434;48.486;7.964;2023-06-14T05:36:43;15.40;41.10
4840;DHT22;2434;48.486;7.964;2023-06-14T05:39:11;15.40;40.30
4840;DHT22;2434;48.486;7.964;2023-06-14T05:41:40;15.50;40.70
4840;DHT22;2434;48.486;7.964;2023-06-14T05:44:10;15.50;41.50
4840;DHT22;2434;48.486;7.964;2023-06-14T05:46:38;15.50;40.70
4840;DHT22;2434;48.486;7.964;2023-06-14T05:49:07;15.60;40.10
4840;DHT22;2434;48.486;7.964;2023-06-14T05:51:35;15.60;40.40
4840;DHT22;2434;48.486;7.964;2023-06-14T05:54:03;15.70;40.20
4840;DHT22;2434;48.486;7.964;2023-06-14T05:56:31;15.70;40.10
4840;DHT22;2434;48.486;7.964;2023-06-14T05:59:00;15.80;40.00
4840;DHT22;2434;48.486;7.964;2023-06-14T06:01:29;15.80;39.90
4840;DHT22;2434;48.486;7.964;2023-06-14T06:03:59;15.80;39.70
4840;DHT22;2434;48.486;7.964;2023-06-14T06:06:28;15.90;39.70
4840;DHT22;2434;48.486;7.964;2023-06-14T06:08:56;15.90;39.30
4840;DHT22;2434;48.486;7.964;2023-06-14T06:11:25;16.00;38.50
4840;DHT22;2434;48.486;7.964;2023-06-14T06:14:00;16.00;38.30
4840;DHT22;2434;48.486;7.964;2023-06-14T06:16:30;16.00;38.20
4840;DHT22;2434;48.486;7.964;2023-06-14T06:18:58;16.10;39.30
4840;DHT22;2434;48.486;7.964;2023-06-14T06:21:27;16.20;38.40
4840;DHT22;2434;48.486;7.964;2023-06-14T06:23:55;16.20;38.10
4840;DHT22;2434;48.486;7.964;2023-06-14T06:26:24;16.30;39.30
4840;DHT22;2434;48.486;7.964;2023-06-14T06:28:53;16.30;40.10
4840;DHT22;2434;48.486;7.964;2023-06-14T06:31:22;16.30;39.70
4840;DHT22;2434;48.486;7.964;2023-06-14T06:33:52;16.40;40.40
4840;DHT22;2434;48.486;7.964;2023-06-14T06:36:21;16.40;39.30
4840;DHT22;2434;48.486;7.964;2023-06-14T06:38:49;16.40;39.70
4840;DHT22;2434;48.486;7.964;2023-06-14T06:41:18;16.50;40.30
4840;DHT22;2434;48.486;7.964;2023-06-14T06:43:46;16.50;39.80
4840;DHT22;2434;48.486;7.964;2023-06-14T06:46:16;16.60;39.40
4840;DHT22;2434;48.486;7.964;2023-06-14T06:48:46;16.60;39.20
4840;DHT22;2434;48.486;7.964;2023-06-14T06:51:16;16.60;38.80
4840;DHT22;2434;48.486;7.964;2023-06-14T06:53:52;16.70;38.80
4840;DHT22;2434;48.486;7.964;2023-06-14T06:56:20;16.70;38.70
4840;DHT22;2434;48.486;7.964;2023-06-14T06:58:50;16.80;38.10
4840;DHT22;2434;48.486;7.964;2023-06-14T07:01:19;16.80;38.40
4840;DHT22;2434;48.486;7.964;2023-06-14T07:03:47;16.80;37.70
4840;DHT22;2434;48.486;7.964;2023-06-14T07:06:17;16.80;37.70
4840;DHT22;2434;48.486;7.964;2023-06-14T07:08:47;16.90;38.00
4840;DHT22;2434;48.486;7.964;2023-06-14T07:11:16;16.90;37.60
4840;DHT22;2434;48.486;7.964;2023-06-14T07:13:44;16.90;38.00
4840;DHT22;2434;48.486;7.964;2023-06-14T07:16:12;17.00;37.20
4840;DHT22;2434;48.486;7.964;2023-06-14T07:18:41;17.00;37.40
4840;DHT22;2434;48.486;7.964;2023-06-14T07:21:09;17.10;37.80
4840;DHT22;2434;48.486;7.964;2023-06-14T07:23:39;17.10;37.60
4840;DHT22;2434;48.486;7.964;2023-06-14T07:26:07;17.10;37.80
4840;DHT22;2434;48.486;7.964;2023-06-14T07:28:35;17.20;37.20
4840;DHT22;2434;48.486;7.964;2023-06-14T07:31:03;17.30;36.90
4840;DHT22;2434;48.486;7.964;2023-06-14T07:33:32;17.30;37.60
4840;DHT22;2434;48.486;7.964;2023-06-14T07:36:00;17.40;37.20
4840;DHT22;2434;48.486;7.964;2023-06-14T07:38:28;17.50;38.40
4840;DHT22;2434;48.486;7.964;2023-06-14T07:40:58;17.50;37.70
4840;DHT22;2434;48.486;7.964;2023-06-14T07:43:27;17.50;37.10
4840;DHT22;2434;48.486;7.964;2023-06-14T07:45:55;17.50;36.90
4840;DHT22;2434;48.486;7.964;2023-06-14T07:48:34;17.60;38.60
4840;DHT22;2434;48.486;7.964;2023-06-14T07:51:02;17.70;36.50
4840;DHT22;2434;48.486;7.964;2023-06-14T07:53:30;17.80;36.40
4840;DHT22;2434;48.486;7.964;2023-06-14T07:56:00;17.90;37.00
4840;DHT22;2434;48.486;7.964;2023-06-14T07:58:29;18.00;37.10
4840;DHT22;2434;48.486;7.964;2023-06-14T08:00:58;18.00;36.90
4840;DHT22;2434;48.486;7.964;2023-06-14T08:03:26;18.10;36.00
4840;DHT22;2434;48.486;7.964;2023-06-14T08:05:55;18.10;34.90
4840;DHT22;2434;48.486;7.964;2023-06-14T08:08:23;18.20;34.00
4840;DHT22;2434;48.486;7.964;2023-06-14T08:10:51;18.30;33.60
4840;DHT22;2434;48.486;7.964;2023-06-14T08:13:21;18.40;33.20
4840;DHT22;2434;48.486;7.964;2023-06-14T08:15:49;18.40;33.40
4840;DHT22;2434;48.486;7.964;2023-06-14T08:18:17;18.60;32.50
4840;DHT22;2434;48.486;7.964;2023-06-14T08:20:46;18.60;32.30
4840;DHT22;2434;48.486;7.964;2023-06-14T08:23:14;18.70;32.60
4840;DHT22;2434;48.486;7.964;2023-06-14T08:25:45;18.80;33.30
4840;DHT22;2434;48.486;7.964;2023-06-14T08:28:14;18.90;33.30
4840;DHT22;2434;48.486;7.964;2023-06-14T08:30:43;19.00;32.60
4840;DHT22;2434;48.486;7.964;2023-06-14T08:33:11;19.10;31.70
4840;DHT22;2434;48.486;7.964;2023-06-14T08:35:43;19.20;32.40
4840;DHT22;2434;48.486;7.964;2023-06-14T08:38:12;19.30;33.00
4840;DHT22;2434;48.486;7.964;2023-06-14T08:40:41;19.40;32.80
4840;DHT22;2434;48.486;7.964;2023-06-14T08:43:09;19.40;32.50
4840;DHT22;2434;48.486;7.964;2023-06-14T08:45:38;19.60;31.00
4840;DHT22;2434;48.486;7.964;2023-06-14T08:48:08;19.70;31.80
4840;DHT22;2434;48.486;7.964;2023-06-14T08:50:39;19.80;30.80
4840;DHT22;2434;48.486;7.964;2023-06-14T08:53:11;19.90;31.30
4840;DHT22;2434;48.486;7.964;2023-06-14T08:55:46;20.00;32.40
4840;DHT22;2434;48.486;7.964;2023-06-14T08:58:15;20.00;31.30
4840;DHT22;2434;48.486;7.964;2023-06-14T09:00:44;20.10;30.00
4840;DHT22;2434;48.486;7.964;2023-06-14T09:03:14;20.30;29.30
4840;DHT22;2434;48.486;7.964;2023-06-14T09:05:44;20.30;29.60
4840;DHT22;2434;48.486;7.964;2023-06-14T09:08:13;20.40;28.80
4840;DHT22;2434;48.486;7.964;2023-06-14T09:10:41;20.50;28.30
4840;DHT22;2434;48.486;7.964;2023-06-14T09:13:09;20.60;29.00
4840;DHT22;2434;48.486;7.964;2023-06-14T09:15:37;20.60;29.90
4840;DHT22;2434;48.486;7.964;2023-06-14T09:18:06;20.70;30.30
4840;DHT22;2434;48.486;7.964;2023-06-14T09:20:36;20.80;28.60
4840;DHT22;2434;48.486;7.964;2023-06-14T09:23:04;21.00;28.30
4840;DHT22;2434;48.486;7.964;2023-06-14T09:25:42;21.10;28.00
4840;DHT22;2434;48.486;7.964;2023-06-14T09:28:11;21.20;28.20
4840;DHT22;2434;48.486;7.964;2023-06-14T09:30:39;21.30;28.20
4840;DHT22;2434;48.486;7.964;2023-06-14T09:33:07;21.40;29.20
4840;DHT22;2434;48.486;7.964;2023-06-14T09:35:38;21.50;28.20
4840;DHT22;2434;48.486;7.964;2023-06-14T09:38:06;21.50;27.00
4840;DHT22;2434;48.486;7.964;2023-06-14T09:40:35;21.60;27.50
4840;DHT22;2434;48.486;7.964;2023-06-14T09:43:06;21.70;29.80
4840;DHT22;2434;48.486;7.964;2023-06-14T09:45:38;21.70;29.20
4840;DHT22;2434;48.486;7.964;2023-06-14T09:48:08;21.80;28.70
4840;DHT22;2434;48.486;7.964;2023-06-14T09:50:39;21.90;27.90
4840;DHT22;2434;48.486;7.964;2023-06-14T09:53:10;22.00;28.70
4840;DHT22;2434;48.486;7.964;2023-06-14T09:55:41;22.10;27.30
4840;DHT22;2434;48.486;7.964;2023-06-14T09:58:10;22.20;27.90
4840;DHT22;2434;48.486;7.964;2023-06-14T10:00:39;22.20;27.10
4840;DHT22;2434;48.486;7.964;2023-06-14T10:03:12;22.30;26.70
4840;DHT22;2434;48.486;7.964;2023-06-14T10:05:44;22.50;25.80
4840;DHT22;2434;48.486;7.964;2023-06-14T10:08:15;22.60;25.10
4840;DHT22;2434;48.486;7.964;2023-06-14T10:10:45;22.60;25.40
4840;DHT22;2434;48.486;7.964;2023-06-14T10:13:14;22.80;23.10
4840;DHT22;2434;48.486;7.964;2023-06-14T10:15:51;22.80;23.10
4840;DHT22;2434;48.486;7.964;2023-06-14T10:18:28;22.90;23.90
4840;DHT22;2434;48.486;7.964;2023-06-14T10:21:05;22.90;22.40
4840;DHT22;2434;48.486;7.964;2023-06-14T10:23:37;23.10;22.00
4840;DHT22;2434;48.486;7.964;2023-06-14T10:26:18;23.20;19.90
4840;DHT22;2434;48.486;7.964;2023-06-14T10:28:57;23.30;20.60
4840;DHT22;2434;48.486;7.964;2023-06-14T10:31:42;23.40;20.00
4840;DHT22;2434;48.486;7.964;2023-06-14T10:34:11;23.50;20.40
4840;DHT22;2434;48.486;7.964;2023-06-14T10:36:42;23.60;19.50
4840;DHT22;2434;48.486;7.964;2023-06-14T10:39:15;23.70;17.60
4840;DHT22;2434;48.486;7.964;2023-06-14T10:41:52;23.80;17.70
4840;DHT22;2434;48.486;7.964;2023-06-14T10:44:43;23.80;17.90
4840;DHT22;2434;48.486;7.964;2023-06-14T10:47:24;23.90;17.90
4840;DHT22;2434;48.486;7.964;2023-06-14T10:49:54;24.00;18.20
4840;DHT22;2434;48.486;7.964;2023-06-14T10:52:28;24.00;18.50
4840;DHT22;2434;48.486;7.964;2023-06-14T10:55:11;24.10;18.10
4840;DHT22;2434;48.486;7.964;2023-06-14T10:57:43;24.10;17.60
4840;DHT22;2434;48.486;7.964;2023-06-14T11:00:19;24.20;17.50
4840;DHT22;2434;48.486;7.964;2023-06-14T11:05:56;24.30;17.40
4840;DHT22;2434;48.486;7.964;2023-06-14T11:08:59;24.30;17.00
4840;DHT22;2434;48.486;7.964;2023-06-14T11:11:32;24.30;18.20
4840;DHT22;2434;48.486;7.964;2023-06-14T11:14:02;24.40;18.00
4840;DHT22;2434;48.486;7.964;2023-06-14T11:16:30;24.50;16.80
4840;DHT22;2434;48.486;7.964;2023-06-14T11:19:00;24.50;16.50
4840;DHT22;2434;48.486;7.964;2023-06-14T11:21:31;24.50;15.50
4840;DHT22;2434;48.486;7.964;2023-06-14T11:24:02;24.50;16.10
4840;DHT22;2434;48.486;7.964;2023-06-14T11:26:31;24.50;15.90
4840;DHT22;2434;48.486;7.964;2023-06-14T11:29:01;24.60;16.10
4840;DHT22;2434;48.486;7.964;2023-06-14T11:31:30;24.70;16.50
4840;DHT22;2434;48.486;7.964;2023-06-14T11:33:59;24.70;15.60
4840;DHT22;2434;48.486;7.964;2023-06-14T11:36:28;24.70;15.60
4840;DHT22;2434;48.486;7.964;2023-06-14T11:38:59;24.80;15.80
4840;DHT22;2434;48.486;7.964;2023-06-14T11:41:36;24.70;15.70
4840;DHT22;2434;48.486;7.964;2023-06-14T11:44:06;24.80;15.70
4840;DHT22;2434;48.486;7.964;2023-06-14T11:46:35;24.80;15.30
4840;DHT22;2434;48.486;7.964;2023-06-14T11:49:04;24.80;16.00
4840;DHT22;2434;48.486;7.964;2023-06-14T11:51:35;24.80;16.50
4840;DHT22;2434;48.486;7.964;2023-06-14T11:54:06;24.90;15.80
4840;DHT22;2434;48.486;7.964;2023-06-14T11:56:36;24.80;14.40
4840;DHT22;2434;48.486;7.964;2023-06-14T11:59:05;24.90;14.30
4840;DHT22;2434;48.486;7.964;2023-06-14T12:01:36;24.90;14.20
4840;DHT22;2434;48.486;7.964;2023-06-14T12:04:06;24.90;15.20
4840;DHT22;2434;48.486;7.964;2023-06-14T12:06:35;24.90;15.30
4840;DHT22;2434;48.486;7.964;2023-06-14T12:09:08;25.00;14.30
4840;DHT22;2434;48.486;7.964;2023-06-14T12:11:42;25.00;15.10
4840;DHT22;2434;48.486;7.964;2023-06-14T12:14:10;25.00;15.20
4840;DHT22;2434;48.486;7.964;2023-06-14T12:16:39;25.20;14.50
4840;DHT22;2434;48.486;7.964;2023-06-14T12:19:11;25.10;15.20
4840;DHT22;2434;48.486;7.964;2023-06-14T12:21:40;25.20;14.30
4840;DHT22;2434;48.486;7.964;2023-06-14T12:24:09;25.20;15.20
4840;DHT22;2434;48.486;7.964;2023-06-14T12:27:00;25.20;14.20
4840;DHT22;2434;48.486;7.964;2023-06-14T12:29:30;25.20;14.60
4840;DHT22;2434;48.486;7.964;2023-06-14T12:31:58;25.20;14.10
4840;DHT22;2434;48.486;7.964;2023-06-14T12:34:27;25.20;14.00
4840;DHT22;2434;48.486;7.964;2023-06-14T12:36:55;25.20;14.20
4840;DHT22;2434;48.486;7.964;2023-06-14T12:39:24;25.20;14.10
4840;DHT22;2434;48.486;7.964;2023-06-14T12:41:52;25.20;14.20
4840;DHT22;2434;48.486;7.964;2023-06-14T12:44:23;25.20;15.30
4840;DHT22;2434;48.486;7.964;2023-06-14T12:46:51;25.20;15.80
4840;DHT22;2434;48.486;7.964;2023-06-14T12:49:21;25.30;15.20
4840;DHT22;2434;48.486;7.964;2023-06-14T12:51:50;25.40;14.50
4840;DHT22;2434;48.486;7.964;2023-06-14T12:54:18;25.30;15.00
4840;DHT22;2434;48.486;7.964;2023-06-14T12:57:06;25.40;14.90
4840;DHT22;2434;48.486;7.964;2023-06-14T12:59:36;25.30;14.10
4840;DHT22;2434;48.486;7.964;2023-06-14T13:02:13;25.40;14.10
4840;DHT22;2434;48.486;7.964;2023-06-14T13:04:41;25.40;14.10
4840;DHT22;2434;48.486;7.964;2023-06-14T13:07:10;25.30;14.10
4840;DHT22;2434;48.486;7.964;2023-06-14T13:09:38;25.40;13.90
4840;DHT22;2434;48.486;7.964;2023-06-14T13:12:08;25.30;14.20
4840;DHT22;2434;48.486;7.964;2023-06-14T13:14:39;25.30;14.00
4840;DHT22;2434;48.486;7.964;2023-06-14T13:17:08;25.40;15.00
4840;DHT22;2434;48.486;7.964;2023-06-14T13:19:37;25.40;14.90
4840;DHT22;2434;48.486;7.964;2023-06-14T13:22:05;25.40;15.90
4840;DHT22;2434;48.486;7.964;2023-06-14T13:24:34;25.40;16.00
4840;DHT22;2434;48.486;7.964;2023-06-14T13:27:03;25.50;15.70
4840;DHT22;2434;48.486;7.964;2023-06-14T13:29:32;25.50;16.10
4840;DHT22;2434;48.486;7.964;2023-06-14T13:32:05;25.50;17.40
4840;DHT22;2434;48.486;7.964;2023-06-14T13:34:34;25.60;16.20
4840;DHT22;2434;48.486;7.964;2023-06-14T13:37:03;25.60;15.60
4840;DHT22;2434;48.486;7.964;2023-06-14T13:39:31;25.60;15.50
4840;DHT22;2434;48.486;7.964;2023-06-14T13:41:59;25.60;15.90
4840;DHT22;2434;48.486;7.964;2023-06-14T13:44:28;25.60;14.90
4840;DHT22;2434;48.486;7.964;2023-06-14T13:46:56;25.60;15.40
4840;DHT22;2434;48.486;7.964;2023-06-14T13:49:26;25.70;15.50
4840;DHT22;2434;48.486;7.964;2023-06-14T13:51:54;25.60;15.40
4840;DHT22;2434;48.486;7.964;2023-06-14T13:54:23;25.70;15.40
4840;DHT22;2434;48.486;7.964;2023-06-14T13:57:09;25.70;16.20
4840;DHT22;2434;48.486;7.964;2023-06-14T13:59:56;25.70;15.10
4840;DHT22;2434;48.486;7.964;2023-06-14T14:02:38;25.80;14.50
4840;DHT22;2434;48.486;7.964;2023-06-14T14:05:09;25.80;14.50
4840;DHT22;2434;48.486;7.964;2023-06-14T14:07:37;25.70;15.50
4840;DHT22;2434;48.486;7.964;2023-06-14T14:10:07;25.70;15.00
4840;DHT22;2434;48.486;7.964;2023-06-14T14:12:53;25.80;15.20
4840;DHT22;2434;48.486;7.964;2023-06-14T14:15:21;25.70;15.00
4840;DHT22;2434;48.486;7.964;2023-06-14T14:18:07;25.70;15.80
4840;DHT22;2434;48.486;7.964;2023-06-14T14:20:38;25.80;15.20
4840;DHT22;2434;48.486;7.964;2023-06-14T14:23:06;25.70;15.10
4840;DHT22;2434;48.486;7.964;2023-06-14T14:25:51;25.80;16.20
4840;DHT22;2434;48.486;7.964;2023-06-14T14:28:37;25.80;14.80
4840;DHT22;2434;48.486;7.964;2023-06-14T14:31:05;25.80;14.60
4840;DHT22;2434;48.486;7.964;2023-06-14T14:33:33;25.80;15.80
4840;DHT22;2434;48.486;7.964;2023-06-14T14:36:04;25.80;15.60
4840;DHT22;2434;48.486;7.964;2023-06-14T14:38:33;25.80;15.80
4840;DHT22;2434;48.486;7.964;2023-06-14T14:41:02;25.90;15.70
4840;DHT22;2434;48.486;7.964;2023-06-14T14:43:30;25.90;15.50
4840;DHT22;2434;48.486;7.964;2023-06-14T14:45:59;25.90;15.70
4840;DHT22;2434;48.486;7.964;2023-06-14T14:48:27;25.90;16.40
4840;DHT22;2434;48.486;7.964;2023-06-14T14:50:55;25.90;15.70
4840;DHT22;2434;48.486;7.964;2023-06-14T14:53:25;25.80;16.20
4840;DHT22;2434;48.486;7.964;2023-06-14T14:55:53;25.90;15.90
4840;DHT22;2434;48.486;7.964;2023-06-14T14:58:22;25.90;16.10
4840;DHT22;2434;48.486;7.964;2023-06-14T15:00:50;25.90;16.10
4840;DHT22;2434;48.486;7.964;2023-06-14T15:03:18;25.80;15.80
4840;DHT22;2434;48.486;7.964;2023-06-14T15:05:47;25.90;14.70
4840;DHT22;2434;48.486;7.964;2023-06-14T15:08:15;25.80;14.80
4840;DHT22;2434;48.486;7.964;2023-06-14T15:10:44;25.80;15.30
4840;DHT22;2434;48.486;7.964;2023-06-14T15:13:14;25.80;15.30
4840;DHT22;2434;48.486;7.964;2023-06-14T15:15:42;25.80;16.20
4840;DHT22;2434;48.486;7.964;2023-06-14T15:18:10;25.80;15.40
4840;DHT22;2434;48.486;7.964;2023-06-14T15:20:39;25.80;15.90
4840;DHT22;2434;48.486;7.964;2023-06-14T15:23:08;25.80;15.20
4840;DHT22;2434;48.486;7.964;2023-06-14T15:25:37;25.80;15.10
4840;DHT22;2434;48.486;7.964;2023-06-14T15:28:07;25.80;15.30
4840;DHT22;2434;48.486;7.964;2023-06-14T15:30:36;25.80;15.60
4840;DHT22;2434;48.486;7.964;2023-06-14T15:33:04;25.80;15.70
4840;DHT22;2434;48.486;7.964;2023-06-14T15:35:33;25.70;15.40
4840;DHT22;2434;48.486;7.964;2023-06-14T15:38:01;25.70;15.20
4840;DHT22;2434;48.486;7.964;2023-06-14T15:40:30;25.70;16.30
4840;DHT22;2434;48.486;7.964;2023-06-14T15:42:58;25.60;16.80
4840;DHT22;2434;48.486;7.964;2023-06-14T15:45:27;25.60;16.10
4840;DHT22;2434;48.486;7.964;2023-06-14T15:47:56;25.70;16.10
4840;DHT22;2434;48.486;7.964;2023-06-14T15:50:25;25.70;16.00
4840;DHT22;2434;48.486;7.964;2023-06-14T15:52:53;25.70;16.00
4840;DHT22;2434;48.486;7.964;2023-06-14T15:55:21;25.70;16.10
4840;DHT22;2434;48.486;7.964;2023-06-14T15:57:49;25.70;15.50
4840;DHT22;2434;48.486;7.964;2023-06-14T16:00:18;25.70;15.40
4840;DHT22;2434;48.486;7.964;2023-06-14T16:02:48;25.70;16.10
4840;DHT22;2434;48.486;7.964;2023-06-14T16:05:17;25.70;15.30
4840;DHT22;2434;48.486;7.964;2023-06-14T16:07:45;25.60;15.30
4840;DHT22;2434;48.486;7.964;2023-06-14T16:10:14;25.60;15.40
4840;DHT22;2434;48.486;7.964;2023-06-14T16:12:43;25.60;15.60
4840;DHT22;2434;48.486;7.964;2023-06-14T16:15:11;25.60;15.80
4840;DHT22;2434;48.486;7.964;2023-06-14T16:17:39;25.60;15.70
4840;DHT22;2434;48.486;7.964;2023-06-14T16:20:11;25.50;16.00
4840;DHT22;2434;48.486;7.964;2023-06-14T16:22:39;25.60;16.20
4840;DHT22;2434;48.486;7.964;2023-06-14T16:25:08;25.60;16.80